This demonstration page uses our WeatherBlox Daily Observations layout. Learn more.

38.80484, -77.04692

Hourly Observations for July 16, 2019

Temp ( °F °C ) Dew Point ( °F °C ) Humidity (%) Winds ( mph kmh ) Pressure ( in mb ) Visibility ( mi km ) Precip ( " mm )
12:52 am 00:52 Mostly Cloudy 79 26.1 68 20 69 69 SSE 5 7 30.06 1018 10 16.09344 0 0
1:52 am 01:52 Mostly Cloudy 79 26.1 69 20.6 72 72 SSE 5 7 30.06 1018 10 16.09344 0 0
2:52 am 02:52 Mostly Cloudy 78 25.6 69 20.6 74 74 E 6 9 30.03 1017 10 16.09344 0 0
3:52 am 03:52 Mostly Cloudy 78 25.6 68 20 71 71 E 3 6 30.06 1018 10 16.09344 0 0
4:52 am 04:52 Mostly Cloudy 77 25 68 20 74 74 E 3 6 30.06 1018 10 16.09344 0 0
5:52 am 05:52 Partly Cloudy 76 24.4 69 20.6 79 79 SSW 3 6 30.06 1018 10 16.09344 0 0
6:52 am 06:52 Partly Cloudy 77 25 69 20.6 77 77 ESE 3 6 30.06 1018 10 16.09344 0 0
7:52 am 07:52 Partly Cloudy 78 25.6 70 21.1 76 76 Calm 30.09 1019 10 16.09344 0 0
8:52 am 08:52 Partly Cloudy 81 27.2 72 22.2 74 74 S 6 9 30.09 1019 10 16.09344 0 0
9:52 am 09:52 Partly Cloudy 83 28.3 72 22.2 70 70 SSE 5 7 30.09 1019 10 16.09344 0 0
10:52 am 10:52 Partly Cloudy 86 30 74 23.3 67 67 S 8 13 30.09 1019 10 16.09344 0 0
11:52 am 11:52 Partly Cloudy 88 31.1 72 22.2 59 59 SE 5 7 30.06 1018 10 16.09344 0 0
12:52 pm 12:52 Partly Cloudy 90 32.2 71 21.7 54 54 SSE 7 11 30.06 1018 10 16.09344 0 0
1:52 pm 13:52 Mostly Cloudy 90 32.2 71 21.7 54 54 S 12 19 30.06 1018 10 16.09344 0 0
2:52 pm 14:52 Mostly Cloudy 92 33.3 72 22.2 52 52 S 10 17 30.03 1017 10 16.09344 0 0
3:52 pm 15:52 Mostly Cloudy 92 33.3 74 23.3 56 56 S 10 17 30 1016 10 16.09344 0 0
4:52 pm 16:52 Mostly Cloudy with Nearby Thunderstorms 91 32.8 73 22.8 56 56 S 10 17 30 1016 10 16.09344 0 0
5:19 pm 17:19 Mostly Cloudy with Thunderstorms 90 32.2 73 22.8 58 58 S 9 15 30 1016 10 16.09344 0 0
5:52 pm 17:52 Mostly Cloudy with Nearby Thunderstorms 89 31.7 74 23.3 61 61 S 7 11 30 1016 10 16.09344 0 0
5:57 pm 17:57 Mostly Cloudy with Thunderstorms 89 31.7 74 23.3 61 61 S 7 11 30 1016 10 16.09344 0 0
6:10 pm 18:10 Mostly Cloudy with Nearby Thunderstorms 89 31.7 76 24.4 65 65 S 8 13 30 1016 10 16.09344 0 0
6:17 pm 18:17 Mostly Cloudy 89 31.7 75 23.9 63 63 S 8 13 30 1016 10 16.09344 0 0
6:52 pm 18:52 Mostly Cloudy 89 31.7 75 23.9 63 63 S 7 11 30 1016 10 16.09344 0 0
7:52 pm 19:52 Mostly Cloudy 88 31.1 74 23.3 63 63 S 6 9 30 1016 10 16.09344 0 0
8:08 pm 20:08 Mostly Cloudy with Nearby Thunderstorms 87 30.6 76 24.4 70 70 S 5 7 30 1016 10 16.09344 0 0
8:22 pm 20:22 Partly Cloudy with Thunderstorms 87 30.6 75 23.9 67 67 SSE 8 13 30 1016 10 16.09344 0 0
8:32 pm 20:32 Mostly Cloudy with Thunderstorms 87 30.6 75 23.9 67 67 S 8 13 30 1016 10 16.09344 0 0
8:52 pm 20:52 Mostly Cloudy with Light Thunderstorms 86 30 76 24.4 72 72 S 7 11 30 1016 10 16.09344 0.001 0.001
9:01 pm 21:01 Mostly Cloudy with Nearby Thunderstorms 86 30 76 24.4 72 72 S 7 11 30.03 1017 10 16.09344 0.001 0.001
9:13 pm 21:13 Mostly Cloudy 86 30 76 24.4 72 72 S 8 13 30.03 1017 10 16.09344 0.001 0.001
9:52 pm 21:52 Mostly Cloudy 86 30 72 22.2 63 63 S 18 30 30.03 1017 10 16.09344 0.001 0.001
10:52 pm 22:52 Mostly Cloudy 84 28.9 72 22.2 67 67 SSW 10 17 30.03 1017 10 16.09344 0 0
11:52 pm 23:52 Cloudy 83 28.3 71 21.7 67 67 SW 8 13 30 1016 10 16.09344 0 0

Powered by AerisWeather